Miners Mill, Pennsylvania
Current Conditions -  °F | °C
As of 7:54 AM on Tuesday 21 Oct 2014 (Local Time) from KAVP Reporting Station
Overcast Overcast  
Wind Chill: 52°   Ceiling: 5500
Heat Index: 52°   Visibility: 10mi
Dew Point: 48°   Wind: 0mph
Humidity: 86%   Direction: NA
Pressure: 29.86"   Gusts: NA
Location:  41.2711°N, 75.8417°W
Report Text: KAVP 211154Z AUTO 00000KT 10SM OVC055 11/09 A2986 RMK AO2 RAE1059B34E51 SLP109 P0001 60001 70001 T01110089 10122 20106 53003
Loading
Personal Weather Stations






























Interactive Weather Map
Tropical Storm Tracking
New forecast layout! Learn more

10-Day Weather Forecast

Advertisements
Track Severe Weather on mobile